Riceville, Mississippi
Current Conditions -  °F | °C
As of 11:53 PM on Tuesday 27 Jan 2015 (Local Time) from KGPT Reporting Station
Clear Clear  
Wind Chill: 51°   Ceiling: Unl
Heat Index: 51°   Visibility: 10mi
Dew Point: 35°   Wind: 7mph
Humidity: 54%   Direction: 350°N
Pressure: 30.17"   Gusts: NA
Location:  30.7239°N, 89.1669°W
Report Text: KGPT 280553Z AUTO 35006KT 10SM CLR 11/02 A3017 RMK AO2 SLP215 T01060017 10172 20083 402280039 51014
Loading
Personal Weather Stations






























Interactive Weather Map New forecast layout! Learn more

10-Day Weather Forecast

Advertisements
Track Severe Weather on mobile